Time;durP1;ratioP1;P1;durP2;ratioP2;P2;SDS_P1;SDS_P2;PMS_P1;PMS_P2;Temp;Humidity;BMP_temperature;BMP_pressure;BME280_temperature;BME280_humidity;BME280_pressure;Samples;Min_cycle;Max_cycle;Signal;HPM_P1;HPM_P2
2023/06/22 00:01:27;;;;;;;7.13;5.10;;;;;;;23.56;71.94;99163.50;7249608;40;20256;31
2023/06/22 00:07:03;;;;;;;5.55;4.95;;;;;;;23.55;71.36;99175.59;7229688;40;20317;31
2023/06/22 00:12:37;;;;;;;5.45;4.35;;;;;;;23.60;71.22;99313.28;7207155;40;20428;31
2023/06/22 00:18:13;;;;;;;6.72;4.35;;;;;;;23.77;70.65;99436.09;7261328;40;20456;31
2023/06/22 00:23:47;;;;;;;9.77;5.82;;;;;;;23.86;70.45;99320.06;7197934;40;20282;31
2023/06/22 00:29:23;;;;;;;9.85;5.50;;;;;;;23.79;73.76;99108.22;7124885;40;20310;31
2023/06/22 00:34:58;;;;;;;8.63;5.80;;;;;;;23.35;77.80;99203.56;7148964;40;20448;31
2023/06/22 00:40:21;;;;;;;6.25;5.12;;;;;;;23.26;76.61;99196.78;7198924;40;20304;31
2023/06/22 00:45:52;;;;;;;8.55;6.03;;;;;;;23.43;76.82;99172.06;7211941;40;20238;31
2023/06/22 00:51:27;;;;;;;6.70;5.50;;;;;;;23.39;76.32;99182.72;7237351;40;20242;31
2023/06/22 00:56:47;;;;;;;9.88;5.90;;;;;;;23.54;75.26;99177.50;7212102;40;20377;31
2023/06/22 01:02:24;;;;;;;6.22;5.28;;;;;;;23.51;76.53;99179.94;7218189;40;20245;31
2023/06/22 01:07:57;;;;;;;6.03;5.43;;;;;;;23.36;76.77;99180.47;7286812;39;20260;31
2023/06/22 01:13:31;;;;;;;7.23;5.75;;;;;;;23.30;76.71;99176.78;7256164;40;20480;31
2023/06/22 01:24:11;;;;;;;7.50;5.95;;;;;;;23.17;77.58;99177.13;7288182;39;20260;31
2023/06/22 01:34:51;;;;;;;6.68;5.43;;;;;;;23.11;77.91;99178.13;7301250;39;20403;31
2023/06/22 01:45:28;;;;;;;7.47;5.45;;;;;;;23.04;77.60;99169.19;7302986;39;20263;31
2023/06/22 01:51:04;;;;;;;7.90;5.40;;;;;;;23.18;77.04;99188.97;7259476;40;20264;31
2023/06/22 01:56:39;;;;;;;7.65;5.87;;;;;;;23.17;76.26;99179.03;7296670;39;20354;31
2023/06/22 02:02:49;;;;;;;8.50;5.62;;;;;;;23.20;77.14;99184.06;7276016;40;20296;31
2023/06/22 02:08:25;;;;;;;6.90;5.32;;;;;;;23.22;76.86;99160.72;7266944;40;20345;31
2023/06/22 02:14:01;;;;;;;8.23;5.18;;;;;;;23.24;76.01;99152.22;7253044;39;20285;31
2023/06/22 02:19:38;;;;;;;10.17;5.83;;;;;;;23.27;75.70;99148.97;7243629;39;20253;31
2023/06/22 02:25:15;;;;;;;7.15;6.00;;;;;;;23.13;76.34;99142.94;7216324;40;20383;31
2023/06/22 02:35:55;;;;;;;6.14;5.44;;;;;;;23.08;76.15;99131.84;7207164;40;20432;31
2023/06/22 02:41:32;;;;;;;8.00;6.28;;;;;;;23.01;77.79;99131.19;7232220;40;20271;31
2023/06/22 02:47:07;;;;;;;6.70;5.90;;;;;;;22.73;77.57;99129.31;7229544;40;20272;31
2023/06/22 02:52:40;;;;;;;6.87;6.18;;;;;;;22.76;78.04;99123.34;6991603;40;21182;31
2023/06/22 02:58:17;;;;;;;7.03;6.32;;;;;;;22.59;78.66;99121.59;7228137;40;20262;31
2023/06/22 03:03:53;;;;;;;7.78;6.45;;;;;;;22.46;79.26;99129.06;7238386;40;20241;31
2023/06/22 03:09:14;;;;;;;9.17;6.53;;;;;;;22.43;78.34;99113.06;7261655;40;20376;31
2023/06/22 03:14:49;;;;;;;7.45;6.60;;;;;;;22.23;79.67;99096.19;7247572;40;20362;31
2023/06/22 03:20:26;;;;;;;10.65;6.57;;;;;;;22.36;79.26;99106.06;7217849;40;20288;31
2023/06/22 03:25:47;;;;;;;7.45;6.60;;;;;;;22.40;78.38;99113.56;7184176;40;20242;31
2023/06/22 03:31:22;;;;;;;9.38;6.07;;;;;;;22.46;79.04;99117.25;7220738;40;20241;31
2023/06/22 03:36:57;;;;;;;7.95;6.20;;;;;;;22.54;78.43;99107.78;7218607;40;20265;31
2023/06/22 03:42:33;;;;;;;9.70;6.97;;;;;;;22.38;79.04;99098.38;7258553;40;20362;31
2023/06/22 03:48:10;;;;;;;9.10;7.12;;;;;;;22.31;78.96;99103.19;7253543;40;20366;31
2023/06/22 03:53:48;;;;;;;9.70;7.60;;;;;;;22.38;79.24;99112.97;7244121;40;21356;31
2023/06/22 03:59:07;;;;;;;8.75;7.15;;;;;;;22.38;79.29;99115.69;7217395;40;20369;31
2023/06/22 04:04:42;;;;;;;9.68;7.35;;;;;;;22.29;79.96;99105.38;7218578;40;20575;31
2023/06/22 04:10:04;;;;;;;11.60;7.65;;;;;;;22.25;79.44;99105.00;7143640;40;20278;31
2023/06/22 04:15:25;;;;;;;9.14;8.18;;;;;;;22.25;79.86;99105.00;7191277;40;20256;31
2023/06/22 04:20:47;;;;;;;11.60;9.20;;;;;;;22.26;80.83;99109.44;7258399;40;21323;31
2023/06/22 04:26:23;;;;;;;11.30;10.05;;;;;;;22.24;80.56;99086.87;7246561;40;20381;31
2023/06/22 04:32:02;;;;;;;12.60;10.60;;;;;;;22.20;81.43;99095.84;7334640;39;20248;31
2023/06/22 04:37:35;;;;;;;13.20;10.90;;;;;;;22.16;82.00;99094.69;7283159;39;20262;31
2023/06/22 04:43:09;;;;;;;11.30;10.18;;;;;;;22.19;81.90;99096.94;7254305;40;20288;31
2023/06/22 04:53:50;;;;;;;12.45;11.15;;;;;;;22.26;81.94;99084.72;7230529;40;20314;31
2023/06/22 04:59:28;;;;;;;12.37;10.90;;;;;;;22.42;81.73;99085.84;7223062;40;20257;31
2023/06/22 05:04:51;;;;;;;11.75;10.65;;;;;;;22.54;81.26;99083.03;7223786;40;20246;31
2023/06/22 05:10:23;;;;;;;12.18;10.55;;;;;;;22.58;81.12;99076.81;7223501;40;20659;31
2023/06/22 05:16:01;;;;;;;14.28;10.82;;;;;;;22.66;81.34;99075.56;7249464;40;20643;31
2023/06/22 05:21:33;;;;;;;12.10;10.20;;;;;;;22.70;81.06;99063.03;7178673;40;20656;31
2023/06/22 05:27:09;;;;;;;11.83;10.43;;;;;;;22.81;81.67;99070.38;7156644;40;20699;31
2023/06/22 05:32:29;;;;;;;11.65;9.43;;;;;;;22.90;80.65;99079.88;7181142;40;21124;31
2023/06/22 05:37:50;;;;;;;13.20;9.20;;;;;;;23.04;80.43;99072.94;7179456;40;20308;31
2023/06/22 05:43:24;;;;;;;11.70;10.15;;;;;;;23.10;81.09;99073.88;7175539;40;20251;31
2023/06/22 05:48:59;;;;;;;10.90;8.95;;;;;;;23.17;80.24;99042.34;7224045;40;20258;31
2023/06/22 05:54:19;;;;;;;12.27;10.20;;;;;;;23.25;79.10;99061.22;7220406;40;20444;31
2023/06/22 05:59:56;;;;;;;13.13;10.07;;;;;;;23.34;79.70;99054.16;7224512;40;20361;31
2023/06/22 06:05:31;;;;;;;10.40;9.32;;;;;;;23.43;79.58;99067.50;7245484;40;20420;31
2023/06/22 06:11:06;;;;;;;10.77;8.93;;;;;;;23.63;78.41;99060.41;7226009;40;20423;31
2023/06/22 06:16:42;;;;;;;10.58;9.48;;;;;;;23.72;76.24;99067.12;7178428;40;20247;31
2023/06/22 06:22:18;;;;;;;10.27;9.23;;;;;;;23.85;77.38;99063.16;7146098;40;20297;31
2023/06/22 06:32:57;;;;;;;10.38;9.17;;;;;;;24.16;75.60;99073.50;7234749;40;20439;31
2023/06/22 06:38:17;;;;;;;10.35;9.20;;;;;;;24.15;74.87;99069.09;7257249;40;20271;31
2023/06/22 06:43:38;;;;;;;11.18;9.82;;;;;;;24.37;75.34;99040.66;7278502;40;20414;31
2023/06/22 06:49:13;;;;;;;11.68;9.70;;;;;;;24.45;74.60;99031.91;7278373;40;20264;31
2023/06/22 06:54:32;;;;;;;11.80;9.78;;;;;;;24.54;75.13;99044.12;7293824;39;20241;31
2023/06/22 06:59:53;;;;;;;12.80;9.90;;;;;;;24.74;74.79;99025.03;7311080;39;20319;31
2023/06/22 07:05:28;;;;;;;13.67;9.93;;;;;;;24.85;73.99;99037.81;7298581;40;20445;31
2023/06/22 07:11:03;;;;;;;11.62;9.56;;;;;;;24.97;73.06;99035.72;7263247;40;20293;31
2023/06/22 07:16:25;;;;;;;10.92;9.56;;;;;;;25.09;73.57;99033.63;7276383;39;20315;31
2023/06/22 07:21:57;;;;;;;12.46;10.08;;;;;;;25.25;73.12;99047.53;7297080;39;20252;31
2023/06/22 07:27:37;;;;;;;11.30;9.30;;;;;;;25.46;71.84;99038.28;7256744;39;20258;31
2023/06/22 07:33:08;;;;;;;10.70;9.10;;;;;;;25.58;71.64;99038.94;7219013;40;20235;31
2023/06/22 07:38:41;;;;;;;11.82;8.98;;;;;;;25.63;70.81;99005.81;7177596;40;20258;31
2023/06/22 07:44:16;;;;;;;9.88;8.82;;;;;;;25.63;70.68;99003.06;7168003;40;20265;31
2023/06/22 07:49:51;;;;;;;9.83;8.37;;;;;;;25.72;70.17;99017.19;7205215;40;20335;31
2023/06/22 07:55:27;;;;;;;13.30;8.56;;;;;;;25.81;69.70;99018.31;7228272;40;20243;31
2023/06/22 08:06:08;;;;;;;14.40;7.90;;;;;;;26.39;68.34;99009.69;7208963;40;20282;31
2023/06/22 08:11:44;;;;;;;11.50;8.38;;;;;;;26.53;67.44;99003.63;7220371;40;20459;31
2023/06/22 08:17:05;;;;;;;9.40;6.65;;;;;;;26.75;67.13;98996.72;7208819;40;20276;31
2023/06/22 08:22:40;;;;;;;12.46;8.40;;;;;;;26.88;66.18;99012.81;7302046;39;20274;31
2023/06/22 08:28:16;;;;;;;9.77;7.43;;;;;;;27.16;65.29;99003.06;7300803;39;20385;31
2023/06/22 08:33:36;;;;;;;8.38;7.18;;;;;;;27.15;63.37;99006.16;7261091;39;20258;31
2023/06/22 08:39:11;;;;;;;8.95;7.47;;;;;;;27.00;64.51;99031.88;7208885;40;20354;31
2023/06/22 08:44:47;;;;;;;7.00;6.10;;;;;;;27.11;63.70;99028.03;7263326;39;20282;31
2023/06/22 08:50:23;;;;;;;9.50;6.90;;;;;;;27.01;62.85;99032.72;7306632;39;20269;31
2023/06/22 09:01:04;;;;;;;7.00;5.90;;;;;;;26.96;63.24;99029.94;7257914;40;20278;31
2023/06/22 09:11:42;;;;;;;11.10;6.80;;;;;;;27.38;62.63;99010.25;7180185;40;20288;31
2023/06/22 09:17:19;;;;;;;9.74;7.20;;;;;;;27.83;61.73;98995.44;7224450;39;20373;31
2023/06/22 09:22:56;;;;;;;11.77;6.80;;;;;;;27.97;61.43;98993.72;7286526;40;20354;31
2023/06/22 09:28:33;;;;;;;7.65;6.65;;;;;;;27.71;60.85;98985.53;7278844;40;20259;31
2023/06/22 09:34:08;;;;;;;8.67;6.30;;;;;;;27.72;61.32;98976.09;7045167;40;20238;31
2023/06/22 09:39:39;;;;;;;8.70;6.10;;;;;;;28.04;61.15;98963.75;7138346;40;20446;31
2023/06/22 09:45:14;;;;;;;10.16;6.84;;;;;;;28.44;61.32;98959.91;7127679;40;20305;31
2023/06/22 09:50:50;;;;;;;8.02;6.62;;;;;;;28.61;58.81;98941.72;7119535;40;20256;31
2023/06/22 09:56:14;;;;;;;8.77;6.57;;;;;;;28.51;60.75;98929.91;7142801;40;20258;31
2023/06/22 10:01:47;;;;;;;11.07;6.80;;;;;;;28.71;59.48;98912.28;7174529;40;20324;31
2023/06/22 10:07:23;;;;;;;10.05;6.57;;;;;;;29.09;59.02;98889.94;7215101;40;20333;31
2023/06/22 10:12:58;;;;;;;13.40;7.80;;;;;;;29.36;57.75;98885.78;7266488;40;20287;31
2023/06/22 10:18:33;;;;;;;9.70;6.90;;;;;;;29.51;56.94;98888.37;7226348;40;20324;31
2023/06/22 10:24:10;;;;;;;9.75;6.20;;;;;;;29.30;57.95;98886.97;7247974;40;21644;31
2023/06/22 10:29:32;;;;;;;9.52;7.16;;;;;;;29.61;56.62;98892.97;7208789;40;20405;31
2023/06/22 10:34:52;;;;;;;8.80;7.10;;;;;;;29.69;56.69;98889.53;7182989;40;20258;31
2023/06/22 10:40:29;;;;;;;10.35;6.55;;;;;;;29.66;57.09;98895.69;7206656;40;20323;31
2023/06/22 10:45:49;;;;;;;9.20;6.60;;;;;;;29.80;56.16;98885.47;7199024;40;20303;31
2023/06/22 10:51:09;;;;;;;8.48;5.90;;;;;;;30.02;55.84;98874.59;7253059;40;20455;31
2023/06/22 10:56:44;;;;;;;7.03;5.68;;;;;;;30.14;55.45;98863.03;7295400;39;20278;31
2023/06/22 11:07:24;;;;;;;10.52;6.07;;;;;;;29.98;54.49;98866.03;7291540;39;20265;31
2023/06/22 11:18:01;;;;;;;8.48;5.15;;;;;;;29.76;54.85;98887.19;7325126;39;20275;31
2023/06/22 11:23:21;;;;;;;8.62;5.52;;;;;;;29.65;54.83;98889.28;7335725;39;20335;31
2023/06/22 11:28:57;;;;;;;9.38;6.00;;;;;;;29.66;55.23;98890.97;7277195;40;20263;31
2023/06/22 11:34:34;;;;;;;8.80;5.70;;;;;;;29.72;55.16;98891.69;7219780;40;20274;31
2023/06/22 11:40:10;;;;;;;10.45;6.00;;;;;;;29.77;54.74;98889.69;7140277;40;21456;31
2023/06/22 11:45:30;;;;;;;11.48;6.20;;;;;;;30.10;54.98;98884.25;7149690;40;20246;31
2023/06/22 11:51:06;;;;;;;8.00;6.00;;;;;;;30.07;54.62;98885.66;7214088;40;20264;31
2023/06/22 11:56:27;;;;;;;9.90;6.10;;;;;;;29.94;54.46;98886.41;7274211;40;20410;31
2023/06/22 12:01:47;;;;;;;8.05;5.57;;;;;;;30.04;54.79;98877.91;7294153;39;20248;31
2023/06/22 12:07:23;;;;;;;7.95;6.15;;;;;;;30.11;54.36;98878.34;7277193;40;20260;31
2023/06/22 12:12:43;;;;;;;9.32;6.10;;;;;;;30.01;53.22;98875.75;7269819;40;20450;31
2023/06/22 12:18:03;;;;;;;10.40;5.75;;;;;;;29.97;53.55;98878.28;7253780;40;20264;31
2023/06/22 12:23:40;;;;;;;9.07;5.93;;;;;;;30.03;53.10;98898.50;7290028;39;20248;31
2023/06/22 12:29:00;;;;;;;12.32;6.06;;;;;;;30.17;53.78;98896.63;7252335;40;20287;31
2023/06/22 12:34:20;;;;;;;10.60;6.60;;;;;;;30.20;52.77;98887.66;7297515;39;20256;31
2023/06/22 12:39:57;;;;;;;10.55;6.40;;;;;;;30.07;53.75;98884.81;7277460;40;20259;31
2023/06/22 12:45:18;;;;;;;10.85;6.07;;;;;;;30.43;53.32;98883.97;7230686;40;20269;31
2023/06/22 12:50:53;;;;;;;10.07;6.22;;;;;;;30.81;52.40;98889.44;7219439;39;20274;31
2023/06/22 12:56:29;;;;;;;6.00;5.40;;;;;;;30.88;51.87;98884.31;7259757;40;20284;31
2023/06/22 13:06:53;;;;;;;11.42;5.90;;;;;;;31.43;51.07;98871.25;7237567;40;20277;31
2023/06/22 13:17:35;;;;;;;9.48;5.82;;;;;;;31.28;50.92;98855.69;7284851;39;20263;31
2023/06/22 13:22:56;;;;;;;9.25;6.03;;;;;;;31.13;50.25;98844.03;7317193;39;20276;31
2023/06/22 13:33:36;;;;;;;11.37;5.70;;;;;;;30.46;52.06;98840.81;7295260;40;20275;31
2023/06/22 13:44:15;;;;;;;10.85;5.47;;;;;;;29.97;53.92;98827.44;7316916;39;20308;31
2023/06/22 13:49:51;;;;;;;12.23;5.95;;;;;;;29.67;55.42;98841.75;7236079;40;20266;31
2023/06/22 14:00:16;;;;;;;17.10;8.45;;;;;;;28.54;64.43;98858.03;7241058;40;20270;31
2023/06/22 14:10:57;;;;;;;16.40;7.50;;;;;;;28.25;64.98;98817.56;7290514;39;20312;31
2023/06/22 14:16:33;;;;;;;12.85;7.28;;;;;;;28.37;66.75;98802.19;7259933;40;20239;31
2023/06/22 14:21:53;;;;;;;16.85;7.63;;;;;;;28.40;64.95;98782.19;7222912;40;20257;31
2023/06/22 14:27:30;;;;;;;12.98;7.68;;;;;;;28.38;65.83;98781.66;7237489;40;20256;31
2023/06/22 14:32:51;;;;;;;14.55;7.90;;;;;;;28.36;66.48;98775.56;7193078;40;20261;31
2023/06/22 14:38:10;;;;;;;13.02;7.57;;;;;;;28.28;68.76;98759.56;7209168;40;20246;31
2023/06/22 14:43:48;;;;;;;17.75;8.50;;;;;;;28.55;69.55;98736.81;7200471;40;20276;31
2023/06/22 14:49:09;;;;;;;14.10;8.13;;;;;;;28.84;68.27;98734.81;7203419;40;20440;31
2023/06/22 14:54:44;;;;;;;16.80;8.25;;;;;;;28.98;68.02;98724.66;7275035;39;20260;31
2023/06/22 15:00:22;;;;;;;13.20;7.70;;;;;;;29.05;67.07;98714.00;7222396;40;20257;31
2023/06/22 15:05:57;;;;;;;12.93;7.12;;;;;;;29.18;65.07;98701.31;7230656;40;20288;31
2023/06/22 15:11:33;;;;;;;9.90;5.32;;;;;;;29.17;61.67;98687.75;7216688;40;20266;31
2023/06/22 15:22:13;;;;;;;9.80;6.37;;;;;;;28.79;63.16;98701.59;7225712;40;20261;31
2023/06/22 15:32:38;;;;;;;11.80;6.32;;;;;;;28.84;63.33;98715.41;7321555;39;20342;31
2023/06/22 15:38:14;;;;;;;9.15;5.75;;;;;;;28.72;63.96;98715.00;7317051;39;20267;31
2023/06/22 15:43:35;;;;;;;12.90;6.50;;;;;;;28.98;63.78;98705.22;7283793;40;20248;31
2023/06/22 15:49:10;;;;;;;10.77;6.07;;;;;;;29.17;62.98;98688.59;7258186;40;20393;31
2023/06/22 15:54:46;;;;;;;9.02;6.57;;;;;;;29.22;62.68;98688.50;7225822;40;21429;31
2023/06/22 16:00:22;;;;;;;11.80;6.78;;;;;;;29.38;61.75;98672.47;7223112;40;21405;31
2023/06/22 16:11:02;;;;;;;13.55;7.10;;;;;;;29.56;60.86;98663.28;7253653;40;20294;31
2023/06/22 16:16:37;;;;;;;13.55;6.40;;;;;;;29.67;60.32;98667.53;7237230;40;20269;31
2023/06/22 16:27:18;;;;;;;10.68;5.18;;;;;;;29.87;55.94;98674.69;7259388;40;20273;31
2023/06/22 16:37:44;;;;;;;8.58;3.96;;;;;;;29.97;50.74;98678.12;7271347;40;20470;31
2023/06/22 16:48:24;;;;;;;9.00;3.10;;;;;;;29.81;46.21;98692.56;7255476;39;20341;31
2023/06/22 16:53:59;;;;;;;4.60;2.85;;;;;;;29.61;43.72;98710.44;7319966;39;20288;31
2023/06/22 17:04:40;;;;;;;10.10;3.08;;;;;;;29.13;44.53;98701.41;7277100;40;20273;31
2023/06/22 17:10:13;;;;;;;7.35;3.08;;;;;;;28.92;43.83;98694.47;7089943;39;21266;31
2023/06/22 17:15:47;;;;;;;8.75;3.55;;;;;;;28.81;44.18;98713.22;7286817;39;20264;31
2023/06/22 17:21:25;;;;;;;7.87;2.97;;;;;;;28.62;44.80;98704.81;7259204;40;20454;31
2023/06/22 17:27:03;;;;;;;6.30;2.90;;;;;;;28.42;45.09;98716.16;7260007;40;20354;31
2023/06/22 17:32:23;;;;;;;8.35;3.00;;;;;;;28.34;45.62;98697.41;7219612;40;20259;31
2023/06/22 17:38:03;;;;;;;6.65;3.28;;;;;;;28.26;45.99;98700.00;7264935;40;20260;31
2023/06/22 17:43:23;;;;;;;6.85;2.90;;;;;;;28.28;45.96;98706.88;7230959;40;20273;31
2023/06/22 17:49:01;;;;;;;6.85;3.00;;;;;;;28.22;47.08;98717.19;7249248;40;20257;31
2023/06/22 17:54:38;;;;;;;7.02;2.82;;;;;;;28.17;48.01;98730.31;7257504;40;20324;31
2023/06/22 18:00:13;;;;;;;6.25;2.70;;;;;;;28.12;48.34;98716.50;7256937;39;20282;31
2023/06/22 18:05:48;;;;;;;4.10;2.90;;;;;;;28.08;48.87;98693.22;7257470;40;20273;31
2023/06/22 18:16:29;;;;;;;5.48;2.94;;;;;;;28.02;49.40;98708.25;7231821;40;20280;31
2023/06/22 18:22:04;;;;;;;9.47;3.05;;;;;;;27.95;50.50;98722.41;7208049;40;21505;31
2023/06/22 18:27:39;;;;;;;5.65;2.35;;;;;;;27.87;52.06;98739.69;7176548;40;20276;31
2023/06/22 18:33:15;;;;;;;2.37;1.73;;;;;;;27.76;52.83;98738.97;7159701;40;20365;31
2023/06/22 18:38:50;;;;;;;3.62;1.65;;;;;;;27.61;53.35;98733.53;7167240;40;20266;31
2023/06/22 18:44:29;;;;;;;4.15;1.70;;;;;;;27.52;54.12;98751.03;7187458;40;20338;31
2023/06/22 18:50:06;;;;;;;3.67;1.70;;;;;;;27.47;54.16;98751.84;7149246;40;20347;31
2023/06/22 18:55:27;;;;;;;2.47;1.40;;;;;;;27.40;53.76;98750.53;7217178;40;20375;31
2023/06/22 19:01:01;;;;;;;1.72;1.28;;;;;;;27.26;54.36;98758.66;7243257;40;20272;31
2023/06/22 19:06:55;;;;;;;2.00;1.33;;;;;;;27.07;54.23;98760.44;7207916;40;20266;31
2023/06/22 19:12:34;;;;;;;2.60;1.23;;;;;;;26.97;52.57;98766.00;7219921;40;21157;31
2023/06/22 19:18:09;;;;;;;1.40;1.00;;;;;;;26.82;53.39;98766.84;7237014;40;20268;31
2023/06/22 19:23:44;;;;;;;1.80;1.08;;;;;;;26.68;54.30;98772.16;7283283;39;20249;31
2023/06/22 19:29:26;;;;;;;1.95;1.00;;;;;;;26.57;53.64;98773.31;7268383;39;20245;31
2023/06/22 19:35:02;;;;;;;1.35;1.20;;;;;;;26.30;53.91;98751.53;7318019;39;20236;31
2023/06/22 19:40:23;;;;;;;3.08;1.23;;;;;;;26.02;55.25;98769.50;7295470;39;20400;31
2023/06/22 19:45:59;;;;;;;2.33;1.20;;;;;;;25.51;56.93;98781.59;7259947;40;20253;31
2023/06/22 19:51:35;;;;;;;1.60;1.30;;;;;;;25.43;57.74;98826.28;7282815;40;20237;31
2023/06/22 19:56:55;;;;;;;6.28;1.42;;;;;;;25.35;57.47;98837.88;7285461;39;20277;31
2023/06/22 20:02:31;;;;;;;1.85;1.15;;;;;;;25.14;58.30;98846.03;7275293;39;20248;31
2023/06/22 20:08:06;;;;;;;1.42;1.30;;;;;;;25.05;58.60;98866.16;7228102;40;20395;31
2023/06/22 20:13:41;;;;;;;4.10;1.40;;;;;;;24.99;58.17;98862.53;7213370;40;20273;31
2023/06/22 20:19:40;;;;;;;2.20;1.30;;;;;;;24.88;58.14;98882.88;7260526;40;20256;31
2023/06/22 20:30:42;;;;;;;4.47;1.58;;;;;;;24.63;57.80;98893.72;7267155;40;20536;31
2023/06/22 20:41:28;;;;;;;2.30;1.50;;;;;;;24.31;59.08;98945.28;7316706;39;20262;31
2023/06/22 20:46:45;;;;;;;2.30;1.33;;;;;;;24.24;60.21;98965.59;7342771;39;20241;31
2023/06/22 20:52:05;;;;;;;3.37;1.30;;;;;;;24.33;59.77;98992.69;7274849;39;20264;31
2023/06/22 20:57:39;;;;;;;2.85;1.50;;;;;;;24.26;59.94;99017.69;7286311;39;20260;31
2023/06/22 21:03:15;;;;;;;1.60;1.50;;;;;;;24.28;59.32;99031.19;7202648;40;20434;31
2023/06/22 21:08:47;;;;;;;3.28;1.75;;;;;;;24.14;60.07;99034.31;7194870;40;20446;31
2023/06/22 21:14:24;;;;;;;1.70;1.35;;;;;;;24.09;60.32;99052.75;7202830;40;20250;31
2023/06/22 21:20:00;;;;;;;1.73;1.60;;;;;;;24.06;60.49;99043.06;7220231;40;20584;31
2023/06/22 21:25:36;;;;;;;2.55;1.80;;;;;;;24.07;60.98;99036.47;7208986;40;20301;31
2023/06/22 21:31:13;;;;;;;2.20;1.62;;;;;;;24.05;61.21;99029.53;7197958;40;20427;31
2023/06/22 21:36:49;;;;;;;2.00;1.55;;;;;;;24.21;60.48;99028.66;7189267;40;20265;31
2023/06/22 21:42:26;;;;;;;2.00;1.70;;;;;;;24.12;62.80;99005.38;7200922;40;20367;31
2023/06/22 21:48:00;;;;;;;2.10;1.90;;;;;;;24.07;63.16;99011.66;7197633;40;20446;31
2023/06/22 21:58:40;;;;;;;2.67;2.00;;;;;;;23.99;62.75;99034.16;7204275;40;20282;31
2023/06/22 22:04:16;;;;;;;3.38;2.10;;;;;;;23.79;62.83;99036.66;7173911;40;20247;31
2023/06/22 22:09:53;;;;;;;4.20;2.05;;;;;;;23.68;62.93;99043.97;7185785;40;20265;31
2023/06/22 22:15:13;;;;;;;2.23;1.97;;;;;;;23.81;62.84;99062.03;7179915;40;20348;31
2023/06/22 22:20:49;;;;;;;3.90;2.00;;;;;;;23.83;63.48;99070.03;7189046;40;20479;31
2023/06/22 22:26:24;;;;;;;2.63;2.23;;;;;;;23.84;62.44;99099.22;7220370;40;20359;31
2023/06/22 22:32:00;;;;;;;2.00;1.80;;;;;;;23.74;63.69;99103.47;7217284;40;20247;31
2023/06/22 22:37:35;;;;;;;2.00;1.60;;;;;;;23.64;62.56;99114.38;7195628;40;20418;31
2023/06/22 22:42:57;;;;;;;1.75;1.50;;;;;;;23.53;63.30;99122.72;7224554;40;20332;31
2023/06/22 22:48:17;;;;;;;1.55;1.45;;;;;;;23.63;63.27;99126.47;7179131;40;20537;31
2023/06/22 22:53:53;;;;;;;3.03;1.47;;;;;;;23.58;62.10;99120.03;7205267;40;20435;31
2023/06/22 22:59:28;;;;;;;2.65;1.35;;;;;;;23.60;62.45;99128.88;7182354;40;20450;31
2023/06/22 23:05:06;;;;;;;1.80;1.50;;;;;;;23.51;62.34;99113.88;7218877;40;20264;31
2023/06/22 23:10:42;;;;;;;2.85;1.50;;;;;;;23.49;62.16;99127.88;7226493;40;20257;31
2023/06/22 23:16:19;;;;;;;1.60;1.40;;;;;;;23.29;60.81;99131.13;7215887;40;20320;31
2023/06/22 23:21:41;;;;;;;1.85;1.65;;;;;;;23.18;61.23;99133.94;7147657;40;20259;31
2023/06/22 23:27:16;;;;;;;3.40;2.20;;;;;;;22.85;61.02;99145.75;7184638;40;20246;31
2023/06/22 23:32:37;;;;;;;3.00;2.40;;;;;;;22.45;62.21;99149.38;7186667;40;20363;31
2023/06/22 23:37:57;;;;;;;3.10;2.80;;;;;;;22.73;61.82;99150.50;7013984;40;20355;31
2023/06/22 23:43:33;;;;;;;3.43;3.07;;;;;;;22.74;61.59;99157.63;7233588;40;21564;31
2023/06/22 23:48:53;;;;;;;3.90;3.50;;;;;;;22.63;60.82;99145.59;7205956;40;20378;31
2023/06/22 23:54:28;;;;;;;3.83;3.42;;;;;;;22.51;61.76;99152.22;7259735;40;20265;31
